createdAt,value
2023-02-19T00:03:05.616Z,57.37
2023-02-19T00:05:15.970Z,57.71
2023-02-19T00:08:26.168Z,57.8
2023-02-19T00:11:15.916Z,57.79
2023-02-19T00:14:05.650Z,57.88
2023-02-19T00:16:05.746Z,57.83
2023-02-19T00:19:05.692Z,57.84
2023-02-19T00:21:15.884Z,57.59
2023-02-19T00:23:15.886Z,57.99
2023-02-19T00:27:05.617Z,58.9
2023-02-19T00:29:05.622Z,59.33
2023-02-19T00:31:15.952Z,59.53
2023-02-19T00:34:15.898Z,60.29
2023-02-19T00:36:15.837Z,60.14
2023-02-19T00:39:05.865Z,60
2023-02-19T00:42:05.626Z,59.56
2023-02-19T00:44:15.846Z,59.36
2023-02-19T00:47:05.575Z,58.97
2023-02-19T00:49:05.657Z,58.76
2023-02-19T00:52:16.915Z,58.5
2023-02-19T00:54:26.245Z,58.65
2023-02-19T00:59:05.634Z,58.7
2023-02-19T01:01:05.686Z,58.72
2023-02-19T01:04:15.883Z,58.8
2023-02-19T01:06:15.909Z,58.61
2023-02-19T01:09:05.625Z,58.41
2023-02-19T01:11:05.669Z,58.11
2023-02-19T01:14:16.929Z,58.31
2023-02-19T01:17:15.970Z,58.91
2023-02-19T01:21:05.597Z,58.92
2023-02-19T01:23:05.650Z,59.14
2023-02-19T01:25:05.615Z,58.72
2023-02-19T01:27:27.870Z,58.76
2023-02-19T01:29:31.272Z,58.57
2023-02-19T01:32:15.942Z,59.28
2023-02-19T01:35:05.618Z,60.27
2023-02-19T01:38:05.568Z,60.21
2023-02-19T01:41:05.598Z,59.94
2023-02-19T01:45:05.561Z,60.72
2023-02-19T01:47:05.596Z,60.21
2023-02-19T01:49:15.920Z,60.5
2023-02-19T01:52:05.606Z,60.06
2023-02-19T01:54:27.839Z,59.81
2023-02-19T01:57:15.886Z,59.78
2023-02-19T02:01:05.598Z,58.89
2023-02-19T02:03:05.587Z,59.55
2023-02-19T02:05:05.605Z,59.55
2023-02-19T02:08:15.965Z,59.29
2023-02-19T02:11:05.601Z,59.4
2023-02-19T02:13:27.860Z,59.39
2023-02-19T02:16:16.028Z,59.91
2023-02-19T02:19:05.617Z,60.34
2023-02-19T02:22:05.632Z,60.74
2023-02-19T02:25:05.653Z,60.23
2023-02-19T02:27:15.904Z,60.41
2023-02-19T02:30:05.602Z,60.48
2023-02-19T02:32:05.673Z,60.26
2023-02-19T02:35:05.644Z,60.42
2023-02-19T02:37:15.993Z,60.97
2023-02-19T02:40:05.618Z,60.91
2023-02-19T02:43:05.650Z,61.38
2023-02-19T02:45:05.635Z,61.72
2023-02-19T02:47:15.906Z,60.9
2023-02-19T02:50:05.614Z,60.9
2023-02-19T02:52:05.617Z,60.9
2023-02-19T02:55:05.607Z,61
2023-02-19T02:57:15.886Z,61.36
2023-02-19T03:01:05.656Z,62.07
2023-02-19T03:05:05.606Z,61.78
2023-02-19T03:07:15.865Z,61.92
2023-02-19T03:10:05.644Z,62.02
2023-02-19T03:13:05.642Z,62.2
2023-02-19T03:15:05.646Z,62.02
2023-02-19T03:17:15.871Z,62.23
2023-02-19T03:20:05.617Z,62.65
2023-02-19T03:23:05.686Z,62.75
2023-02-19T03:26:26.209Z,62.58
2023-02-19T03:29:05.587Z,62.58
2023-02-19T03:31:05.707Z,62.1
2023-02-19T03:33:05.649Z,62.39
2023-02-19T03:36:16.934Z,61.93
2023-02-19T03:39:15.904Z,62.14
2023-02-19T03:42:05.624Z,62.28
2023-02-19T03:44:05.637Z,62.19
2023-02-19T03:46:05.596Z,62.54
2023-02-19T03:48:05.674Z,62.48
2023-02-19T03:51:05.587Z,62.97
2023-02-19T03:54:05.587Z,62.65
2023-02-19T03:56:05.640Z,62.44
2023-02-19T03:58:05.661Z,62.14
2023-02-19T04:00:16.934Z,61.86
2023-02-19T04:03:15.897Z,61.3
2023-02-19T04:05:15.923Z,61.33
2023-02-19T04:08:05.655Z,61.22
2023-02-19T04:11:05.617Z,61.11
2023-02-19T04:13:05.628Z,61.58
2023-02-19T04:16:05.640Z,61.9
2023-02-19T04:19:05.603Z,61.94
2023-02-19T04:22:05.631Z,62.03
2023-02-19T04:24:05.648Z,61.72
2023-02-19T04:26:15.902Z,61.82
2023-02-19T04:29:05.691Z,61.48
2023-02-19T04:32:05.643Z,61.41
2023-02-19T04:35:15.864Z,61.38
2023-02-19T04:37:15.890Z,61.58
2023-02-19T04:40:05.641Z,61.47
2023-02-19T04:44:05.641Z,61.18
2023-02-19T04:46:15.947Z,61.5
2023-02-19T04:50:05.663Z,60.97
2023-02-19T04:54:05.614Z,60.81
2023-02-19T04:56:05.719Z,61.13
2023-02-19T04:58:16.922Z,60.83
2023-02-19T05:02:05.669Z,60.64
2023-02-19T05:04:05.791Z,60.62
2023-02-19T05:07:15.907Z,61.31
2023-02-19T05:09:27.900Z,61.26
2023-02-19T05:12:15.908Z,61.49
2023-02-19T05:15:05.621Z,61.21
2023-02-19T05:17:05.623Z,61.27
2023-02-19T05:19:05.711Z,61.01
2023-02-19T05:22:05.589Z,61.22
2023-02-19T05:24:11.234Z,61.41
2023-02-19T05:27:05.621Z,60.89
2023-02-19T05:29:05.624Z,61.28
2023-02-19T05:32:05.649Z,61.17
2023-02-19T05:34:05.645Z,61.08
2023-02-19T05:37:15.908Z,60.94
2023-02-19T05:40:15.914Z,60.96
2023-02-19T05:43:05.622Z,61.13
2023-02-19T05:46:05.646Z,61.24
2023-02-19T05:48:15.870Z,60.63
2023-02-19T05:50:15.916Z,60.2
2023-02-19T05:53:05.616Z,61.04
2023-02-19T05:56:05.589Z,61.13
2023-02-19T05:58:15.898Z,61.17
2023-02-19T06:01:05.611Z,61
2023-02-19T06:03:05.609Z,60.92
2023-02-19T06:05:05.722Z,61.17
2023-02-19T06:09:05.599Z,60.62
2023-02-19T06:11:15.880Z,60.23
2023-02-19T06:13:17.777Z,60.47
2023-02-19T06:15:27.877Z,60.58
2023-02-19T06:18:15.891Z,60.06
2023-02-19T06:21:05.633Z,60.07
2023-02-19T06:23:05.599Z,60.43
2023-02-19T06:26:05.728Z,60.63
2023-02-19T06:29:05.687Z,60.19
2023-02-19T06:31:16.036Z,60.67
2023-02-19T06:34:15.948Z,60.08
2023-02-19T06:37:05.632Z,60.52
2023-02-19T06:40:05.621Z,60.72
2023-02-19T06:42:15.913Z,61.08
2023-02-19T06:45:05.592Z,60.71
2023-02-19T06:47:05.612Z,60.79
2023-02-19T06:49:05.621Z,60.34
2023-02-19T06:51:05.632Z,60.5
2023-02-19T06:53:05.627Z,60.27
2023-02-19T06:56:05.657Z,60.11
2023-02-19T06:58:05.614Z,59.95
2023-02-19T07:00:05.699Z,60.23
2023-02-19T07:03:05.730Z,60.76
2023-02-19T07:05:05.626Z,60.88
2023-02-19T07:08:05.641Z,61.01
2023-02-19T07:10:15.917Z,61.06
2023-02-19T07:12:15.915Z,60.98
2023-02-19T07:15:05.635Z,60.62
2023-02-19T07:18:05.645Z,60.63
2023-02-19T07:21:05.653Z,60.52
2023-02-19T07:25:05.706Z,60.18
2023-02-19T07:28:05.658Z,59.75
2023-02-19T07:31:05.689Z,59.81
2023-02-19T07:34:05.624Z,59.68
2023-02-19T07:37:05.676Z,59.96
2023-02-19T07:39:15.887Z,60.2
2023-02-19T07:42:05.644Z,60.04
2023-02-19T07:44:05.684Z,59.86
2023-02-19T07:47:05.633Z,59.92
2023-02-19T07:49:05.629Z,59.96
2023-02-19T07:52:05.678Z,59.52
2023-02-19T07:55:05.650Z,59.54
2023-02-19T07:58:06.266Z,59.63
2023-02-19T08:00:15.947Z,59.28
2023-02-19T08:02:15.918Z,59.37
2023-02-19T08:05:05.617Z,59.14
2023-02-19T08:08:05.614Z,58.81
2023-02-19T08:10:15.893Z,58.67
2023-02-19T08:12:16.022Z,58.81
2023-02-19T08:15:05.629Z,58.27
2023-02-19T08:17:05.645Z,58.36
2023-02-19T08:19:05.673Z,58.48
2023-02-19T08:22:05.621Z,58.09
2023-02-19T08:24:05.635Z,58.13
2023-02-19T08:27:05.591Z,58.06
2023-02-19T08:30:05.759Z,57.95
2023-02-19T08:35:17.014Z,57.58
2023-02-19T08:38:15.934Z,57.7
2023-02-19T08:41:05.642Z,57.64
2023-02-19T08:43:05.668Z,57.73
2023-02-19T08:46:05.666Z,57.78
2023-02-19T08:48:05.605Z,57.7
2023-02-19T08:50:05.649Z,57.8
2023-02-19T08:53:36.517Z,57.74
2023-02-19T08:55:40.866Z,57.55
2023-02-19T08:58:15.893Z,57.48
2023-02-19T09:01:36.518Z,57.58
2023-02-19T09:04:15.921Z,57.7
2023-02-19T09:07:05.624Z,57.62
2023-02-19T09:09:27.880Z,57.78
2023-02-19T09:12:26.194Z,58.17
2023-02-19T09:15:05.601Z,57.8
2023-02-19T09:17:05.673Z,57.74
2023-02-19T09:20:05.613Z,57.98
2023-02-19T09:22:05.676Z,57.9
2023-02-19T09:24:05.688Z,57.67
2023-02-19T09:27:05.656Z,57.57
2023-02-19T09:29:05.693Z,57.77
2023-02-19T09:32:05.700Z,57.52
2023-02-19T09:35:05.755Z,57.25
2023-02-19T09:38:05.671Z,57.15
2023-02-19T09:40:05.703Z,57.34
2023-02-19T09:42:05.741Z,57.22
2023-02-19T09:45:05.684Z,56.99
2023-02-19T09:47:05.708Z,56.65
2023-02-19T09:49:15.941Z,56.71
2023-02-19T09:51:15.947Z,56.79
2023-02-19T09:54:05.647Z,56.69
2023-02-19T09:56:05.674Z,56.64
2023-02-19T09:59:05.672Z,56.3
2023-02-19T10:01:05.727Z,56.14
2023-02-19T10:04:05.660Z,56.2
2023-02-19T10:06:05.674Z,56.23
2023-02-19T10:08:05.685Z,56.11
2023-02-19T10:10:15.936Z,56.14
2023-02-19T10:12:15.926Z,56.21
2023-02-19T10:18:05.679Z,56.31
2023-02-19T10:22:05.656Z,55.13
2023-02-19T10:24:05.654Z,55.18
2023-02-19T10:26:05.656Z,55.32
2023-02-19T10:28:26.232Z,55.32
2023-02-19T10:31:05.682Z,55.18
2023-02-19T10:33:27.926Z,55.19
2023-02-19T10:36:15.910Z,55.45
2023-02-19T10:39:36.540Z,54.78
2023-02-19T10:41:43.142Z,54.96
2023-02-19T10:44:15.906Z,54.46
2023-02-19T10:46:26.296Z,54.53
2023-02-19T10:49:15.890Z,53.95
2023-02-19T10:52:05.649Z,54.13
2023-02-19T10:54:05.636Z,54.16
2023-02-19T10:56:05.667Z,54.13
2023-02-19T10:59:15.947Z,54.44
2023-02-19T11:02:16.026Z,55.07
2023-02-19T11:06:05.671Z,55.33
2023-02-19T11:08:26.290Z,55.39
2023-02-19T11:10:30.644Z,55.86
2023-02-19T11:13:15.913Z,56.97
2023-02-19T11:17:05.811Z,56.93
2023-02-19T11:21:05.647Z,57.48
2023-02-19T11:23:15.919Z,58.04
2023-02-19T11:26:26.217Z,58.07
2023-02-19T11:28:29.618Z,58.47
2023-02-19T11:33:26.511Z,57.69
2023-02-19T11:36:15.981Z,57.38
2023-02-19T11:40:05.681Z,57.69
2023-02-19T11:42:29.467Z,57.1
2023-02-19T11:45:26.246Z,57.34
2023-02-19T11:48:05.670Z,56.88
2023-02-19T11:50:05.679Z,56.28
2023-02-19T11:53:05.649Z,56.01
2023-02-19T11:55:05.677Z,55.97
2023-02-19T11:57:15.953Z,55.48
2023-02-19T12:00:05.650Z,55.05
2023-02-19T12:04:05.639Z,54.41
2023-02-19T12:06:15.922Z,54.2
2023-02-19T12:09:36.536Z,53.5
2023-02-19T12:12:15.964Z,53.55
2023-02-19T12:14:15.987Z,52.2
2023-02-19T12:17:05.691Z,52.53
2023-02-19T12:20:05.622Z,52.4
2023-02-19T12:22:15.948Z,52.19
2023-02-19T12:25:26.231Z,52.95
2023-02-19T12:27:29.704Z,53.04
2023-02-19T12:30:15.969Z,53
2023-02-19T12:33:05.716Z,52.96
2023-02-19T12:37:05.630Z,52.58
2023-02-19T12:39:05.708Z,52.42
2023-02-19T12:42:15.961Z,52.64
2023-02-19T12:45:05.681Z,52.87
2023-02-19T12:47:27.923Z,52.67
2023-02-19T12:50:15.965Z,52.14
2023-02-19T12:53:26.192Z,51.91
2023-02-19T12:56:15.990Z,51.77
2023-02-19T12:59:05.732Z,51.2
2023-02-19T13:02:05.672Z,51.52
2023-02-19T13:04:58.763Z,51.27
2023-02-19T13:07:05.669Z,51.37
2023-02-19T13:11:05.800Z,50.8
2023-02-19T13:13:05.727Z,50.78
2023-02-19T13:16:05.677Z,50.34
2023-02-19T13:18:06.757Z,50.35
2023-02-19T13:21:05.676Z,50.65
2023-02-19T13:23:05.671Z,50.62
2023-02-19T13:25:05.681Z,50.52
2023-02-19T13:27:05.775Z,50.62
2023-02-19T13:31:05.771Z,50.76
2023-02-19T13:33:15.990Z,49.61
2023-02-19T13:36:05.700Z,49.4
2023-02-19T13:39:05.659Z,49.97
2023-02-19T13:41:05.687Z,49.22
2023-02-19T13:44:05.675Z,49.61
2023-02-19T13:46:05.771Z,49.42
2023-02-19T13:49:05.629Z,49.7
2023-02-19T13:51:05.670Z,48.81
2023-02-19T13:53:05.666Z,48.44
2023-02-19T13:56:05.658Z,47.95
2023-02-19T13:58:15.959Z,47.53
2023-02-19T14:01:05.709Z,47.63
2023-02-19T14:03:05.637Z,47.15
2023-02-19T14:05:05.665Z,46.88
2023-02-19T14:08:05.673Z,46.99
2023-02-19T14:11:05.663Z,46.75
2023-02-19T14:14:05.657Z,46.85
2023-02-19T14:16:05.712Z,46.33
2023-02-19T14:18:05.710Z,46.13
2023-02-19T14:21:05.712Z,45.98
2023-02-19T14:24:05.657Z,46.03
2023-02-19T14:27:05.644Z,46.36
2023-02-19T14:29:05.656Z,46.26
2023-02-19T14:31:05.703Z,46.1
2023-02-19T14:33:10.834Z,46.49
2023-02-19T14:36:05.683Z,46.86
2023-02-19T14:38:05.670Z,47.22
2023-02-19T14:41:05.688Z,47.33
2023-02-19T14:44:05.689Z,47.08
2023-02-19T14:47:05.715Z,47.09
2023-02-19T14:50:05.712Z,47.28
2023-02-19T14:53:05.684Z,46.95
2023-02-19T14:55:05.681Z,47.38
2023-02-19T14:58:05.653Z,46.94
2023-02-19T15:00:05.731Z,46.71
2023-02-19T15:03:05.811Z,46.7
2023-02-19T15:07:05.684Z,46.66
2023-02-19T15:09:05.711Z,46.65
2023-02-19T15:12:05.670Z,46.85
2023-02-19T15:15:05.682Z,47.39
2023-02-19T15:17:05.690Z,47.39
2023-02-19T15:19:05.766Z,47.25
2023-02-19T15:22:05.671Z,47.43
2023-02-19T15:24:05.669Z,47.31
2023-02-19T15:26:15.995Z,47.7
2023-02-19T15:29:05.676Z,47.95
2023-02-19T15:31:05.756Z,48.15
2023-02-19T15:34:05.668Z,48.74
2023-02-19T15:37:05.705Z,49.1
2023-02-19T15:39:05.722Z,49.35
2023-02-19T15:41:05.717Z,49.43
2023-02-19T15:44:05.701Z,49.5
2023-02-19T15:47:05.707Z,49.63
2023-02-19T15:50:05.674Z,49.84
2023-02-19T15:52:05.788Z,49.72
2023-02-19T15:56:05.671Z,50.59
2023-02-19T15:58:15.957Z,50.88
2023-02-19T16:01:26.261Z,51.08
2023-02-19T16:04:16.077Z,51.56
2023-02-19T16:08:05.742Z,52.2
2023-02-19T16:11:05.677Z,52.54
2023-02-19T16:13:05.705Z,53.25
2023-02-19T16:15:05.710Z,53.3
2023-02-19T16:17:15.973Z,53.92
2023-02-19T16:20:05.712Z,54.33
2023-02-19T16:22:05.684Z,54.53
2023-02-19T16:25:05.697Z,54.95
2023-02-19T16:27:05.692Z,55.61
2023-02-19T16:29:05.716Z,55.13
2023-02-19T16:32:15.998Z,56.55
2023-02-19T16:35:26.265Z,56.09
2023-02-19T16:40:05.754Z,57.09
2023-02-19T16:43:05.672Z,58.08
2023-02-19T16:45:27.527Z,58.64
2023-02-19T16:48:15.990Z,58.25
2023-02-19T16:51:05.688Z,59.28
2023-02-19T16:53:05.701Z,59.07
2023-02-19T16:55:05.701Z,58.78
2023-02-19T16:58:05.668Z,58.48
2023-02-19T17:00:16.007Z,58.77
2023-02-19T17:03:05.684Z,58.29
2023-02-19T17:06:05.702Z,58.21
2023-02-19T17:08:05.666Z,57.93
2023-02-19T17:10:05.691Z,58.52
2023-02-19T17:12:16.000Z,58.36
2023-02-19T17:15:05.669Z,58.16
2023-02-19T17:18:05.662Z,58.13
2023-02-19T17:20:05.679Z,58.26
2023-02-19T17:22:05.693Z,58.32
2023-02-19T17:24:16.082Z,58.27
2023-02-19T17:27:05.699Z,58.23
2023-02-19T17:29:05.711Z,58
2023-02-19T17:33:16.230Z,58.33
2023-02-19T17:35:16.007Z,58.47
2023-02-19T17:38:05.718Z,58.64
2023-02-19T17:41:05.714Z,58.54
2023-02-19T17:44:05.723Z,58.75
2023-02-19T17:47:05.723Z,59.17
2023-02-19T17:50:05.724Z,59.46
2023-02-19T17:53:05.709Z,58.49
2023-02-19T17:56:05.887Z,58.97
2023-02-19T17:59:05.680Z,58.76
2023-02-19T18:01:05.807Z,58.13
2023-02-19T18:04:16.105Z,57.41
2023-02-19T18:06:16.021Z,57.31
2023-02-19T18:09:05.685Z,57.05
2023-02-19T18:11:05.703Z,56.92
2023-02-19T18:14:05.689Z,56.99
2023-02-19T18:17:05.780Z,57.12
2023-02-19T18:20:05.710Z,57.13
2023-02-19T18:23:05.708Z,57.32
2023-02-19T18:25:05.711Z,57.17
2023-02-19T18:27:15.995Z,57.19
2023-02-19T18:30:05.714Z,57.04
2023-02-19T18:32:05.756Z,56.47
2023-02-19T18:34:05.705Z,56.47
2023-02-19T18:36:05.722Z,56.44
2023-02-19T18:38:05.717Z,56.17
2023-02-19T18:40:15.980Z,56.24
2023-02-19T18:43:05.700Z,56.76
2023-02-19T18:45:05.710Z,57.02
2023-02-19T18:47:05.742Z,56.97
2023-02-19T18:49:26.262Z,57.1
2023-02-19T18:51:26.378Z,57.01
2023-02-19T18:55:05.761Z,57.11
2023-02-19T18:59:05.736Z,57.18
2023-02-19T19:01:15.988Z,56.83
2023-02-19T19:04:05.691Z,56.66
2023-02-19T19:06:05.783Z,56.22
2023-02-19T19:09:05.699Z,56.19
2023-02-19T19:11:05.726Z,56.19
2023-02-19T19:14:05.686Z,56.19
2023-02-19T19:16:05.770Z,56.48
2023-02-19T19:19:05.681Z,56.06
2023-02-19T19:22:05.680Z,55.74
2023-02-19T19:25:05.709Z,55.58
2023-02-19T19:27:05.723Z,55.56
2023-02-19T19:29:05.716Z,55.66
2023-02-19T19:32:07.903Z,55.83
2023-02-19T19:35:05.777Z,55.73
2023-02-19T19:37:22.851Z,55.75
2023-02-19T19:40:05.693Z,55.93
2023-02-19T19:42:05.702Z,55.76
2023-02-19T19:44:05.724Z,56.01
2023-02-19T19:46:05.782Z,56.23
2023-02-19T19:49:05.706Z,56.02
2023-02-19T19:51:05.723Z,56.1
2023-02-19T19:53:05.741Z,54.8
2023-02-19T19:56:05.732Z,55.64
2023-02-19T19:59:05.759Z,55.57
2023-02-19T20:02:05.726Z,55.33
2023-02-19T20:04:05.746Z,55.71
2023-02-19T20:06:05.727Z,55.81
2023-02-19T20:10:05.706Z,55.48
2023-02-19T20:12:05.830Z,55.51
2023-02-19T20:15:05.783Z,55.28
2023-02-19T20:18:05.679Z,55.36
2023-02-19T20:20:05.749Z,55.31
2023-02-19T20:22:05.775Z,55.2
2023-02-19T20:25:05.738Z,55.19
2023-02-19T20:27:05.746Z,55.43
2023-02-19T20:30:05.776Z,55.15
2023-02-19T20:32:05.828Z,55.26
2023-02-19T20:35:05.846Z,55.33
2023-02-19T20:37:09.266Z,55.3
2023-02-19T20:40:05.735Z,55
2023-02-19T20:43:05.735Z,54.9
2023-02-19T20:45:05.817Z,55.21
2023-02-19T20:48:08.819Z,55.3
2023-02-19T20:50:05.719Z,55.02
2023-02-19T20:52:05.827Z,55.28
2023-02-19T20:55:05.757Z,55.44
2023-02-19T20:57:05.750Z,55.5
2023-02-19T21:00:05.733Z,54.72
2023-02-19T21:03:05.857Z,55.53
2023-02-19T21:05:15.979Z,55.35
2023-02-19T21:07:16.014Z,55.29
2023-02-19T21:10:05.757Z,55.34
2023-02-19T21:13:05.733Z,55.38
2023-02-19T21:15:05.738Z,55.46
2023-02-19T21:18:05.733Z,55.61
2023-02-19T21:21:05.763Z,55.4
2023-02-19T21:23:05.767Z,55.3
2023-02-19T21:26:05.729Z,55.11
2023-02-19T21:28:05.725Z,55.32
2023-02-19T21:30:05.699Z,55.33
2023-02-19T21:32:05.767Z,55.37
2023-02-19T21:34:05.819Z,55.13
2023-02-19T21:37:15.157Z,55.2
2023-02-19T21:40:05.704Z,55.57
2023-02-19T21:42:05.714Z,55.48
2023-02-19T21:45:05.731Z,55.38
2023-02-19T21:47:05.686Z,55.29
2023-02-19T21:49:05.747Z,55.16
2023-02-19T21:51:05.818Z,55.4
2023-02-19T21:54:05.763Z,55.61
2023-02-19T21:57:05.756Z,55.72
2023-02-19T22:01:05.791Z,55.59
2023-02-19T22:05:05.735Z,55.65
2023-02-19T22:07:05.725Z,55.63
2023-02-19T22:09:16.025Z,55.5
2023-02-19T22:12:36.588Z,55.34
2023-02-19T22:15:16.018Z,55.56
2023-02-19T22:18:05.695Z,55.77
2023-02-19T22:21:05.746Z,55.27
2023-02-19T22:23:06.840Z,55.35
2023-02-19T22:25:05.943Z,55.58
2023-02-19T22:27:15.989Z,55.09
2023-02-19T22:30:05.976Z,55.33
2023-02-19T22:32:05.786Z,55.32
2023-02-19T22:35:05.720Z,55.38
2023-02-19T22:38:16.029Z,55.32
2023-02-19T22:41:05.846Z,54.96
2023-02-19T22:44:05.735Z,55.02
2023-02-19T22:47:05.724Z,55.45
2023-02-19T22:50:05.736Z,55.28
2023-02-19T22:52:05.744Z,55.14
2023-02-19T22:54:05.715Z,55.27
2023-02-19T22:56:05.757Z,55.44
2023-02-19T22:59:05.746Z,55.55
2023-02-19T23:02:05.714Z,55.61
2023-02-19T23:05:05.723Z,55.5
2023-02-19T23:07:05.730Z,55.07
2023-02-19T23:09:05.760Z,54.96
2023-02-19T23:11:05.764Z,55.19
2023-02-19T23:14:05.768Z,55.26
2023-02-19T23:17:05.747Z,54.67
2023-02-19T23:21:05.755Z,55.44
2023-02-19T23:23:16.048Z,55.26
2023-02-19T23:26:05.705Z,55.7
2023-02-19T23:29:05.716Z,55.45
2023-02-19T23:32:05.723Z,55.42
2023-02-19T23:34:05.739Z,55.67
2023-02-19T23:37:05.714Z,54.99
2023-02-19T23:40:05.757Z,55.23
2023-02-19T23:43:05.730Z,55.62
2023-02-19T23:46:05.820Z,54.99
2023-02-19T23:49:05.724Z,55.12
2023-02-19T23:52:05.719Z,55.44
2023-02-19T23:54:05.720Z,55.47
2023-02-19T23:57:05.713Z,55.88
